Terminal Aerodrome Forecast
Issued by NWS

Home | Current Version | Previous Version | Text Only | Print | Product List | Glossary On
Versions: 1 2 3 4 5 6 7 8 9 10 11 12
000
FTUS43 KGRR 032300 RRA
TAFBTL
TAF
KBTL 032344Z 0400/0424 20009KT P6SM BKN100
     FM040500 19010KT 6SM -SHRA BKN040
     FM040800 19011KT P6SM VCTS OVC035CB
     FM041500 24009KT P6SM VCSH OVC025
     FM041800 28009KT P6SM VCTS OVC015CB=

USA.gov is the U.S. government's official web portal to all federal, state and local government web resources and services.